Time;durP1;ratioP1;P1;durP2;ratioP2;P2;SDS_P1;SDS_P2;PMS_P1;PMS_P2;Temp;Humidity;BMP_temperature;BMP_pressure;BME280_temperature;BME280_humidity;BME280_pressure;Samples;Min_cycle;Max_cycle;Signal;HPM_P1;HPM_P2
2023/05/27 00:06:17;;;;;;;3.63;1.15;;;;;;;11.42;60.48;102411.63;15705683;28;20040;-50
2023/05/27 00:13:50;;;;;;;0.73;0.73;;;;;;;11.19;60.81;102411.56;15731338;28;20097;-45
2023/05/27 00:21:24;;;;;;;0.47;0.47;;;;;;;11.12;61.10;102406.03;15712610;28;20045;-50
2023/05/27 00:28:56;;;;;;;2.05;1.38;;;;;;;10.96;61.50;102408.78;15650528;28;20049;-45
2023/05/27 00:36:31;;;;;;;2.65;1.45;;;;;;;10.95;61.21;102409.78;15706143;28;20102;-46
2023/05/27 00:44:04;;;;;;;1.25;0.63;;;;;;;10.90;61.58;102410.28;15706196;28;20068;-48
2023/05/27 00:51:38;;;;;;;1.10;0.77;;;;;;;10.64;62.38;102410.53;15700486;28;20059;-49
2023/05/27 00:59:11;;;;;;;1.45;1.05;;;;;;;10.62;62.58;102415.22;15668549;28;20512;-47
2023/05/27 01:06:56;;;;;;;0.80;0.60;;;;;;;10.63;62.81;102410.69;15696745;28;20087;-46
2023/05/27 01:14:31;;;;;;;8.40;1.65;;;;;;;10.42;63.13;102398.63;15694709;28;20059;-45
2023/05/27 01:22:08;;;;;;;1.80;1.23;;;;;;;10.08;63.17;102414.03;15676880;28;20115;-49
2023/05/27 01:29:42;;;;;;;1.65;0.65;;;;;;;9.97;63.43;102410.63;15667181;28;20049;-50
2023/05/27 01:37:20;;;;;;;2.45;1.00;;;;;;;9.94;63.73;102402.09;15709465;28;20040;-49
2023/05/27 01:44:57;;;;;;;0.88;0.88;;;;;;;9.70;64.45;102395.69;15680910;28;20139;-50
2023/05/27 01:52:31;;;;;;;4.32;1.17;;;;;;;9.70;64.50;102390.31;15702577;28;20080;-46
2023/05/27 02:00:08;;;;;;;8.80;1.07;;;;;;;9.58;64.52;102391.59;15694688;28;20068;-50
2023/05/27 02:07:49;;;;;;;2.42;1.50;;;;;;;9.37;65.03;102385.81;15707307;28;20052;-48
2023/05/27 02:15:38;;;;;;;1.55;1.45;;;;;;;9.28;64.53;102389.47;15695824;28;20044;-52
2023/05/27 02:23:11;;;;;;;3.28;1.17;;;;;;;9.00;65.30;102375.44;15693653;28;20041;-48
2023/05/27 02:30:45;;;;;;;6.23;1.50;;;;;;;9.01;64.87;102385.19;15719284;28;20160;-46
2023/05/27 02:38:18;;;;;;;2.63;0.90;;;;;;;8.80;65.62;102389.06;15713744;28;20044;-47
2023/05/27 02:45:53;;;;;;;0.50;0.50;;;;;;;8.82;65.08;102386.25;15714146;28;20037;-47
2023/05/27 02:53:26;;;;;;;1.02;0.98;;;;;;;8.75;64.82;102388.72;15708834;28;20579;-49
2023/05/27 03:01:00;;;;;;;1.55;0.82;;;;;;;8.69;64.75;102392.84;15643332;28;20045;-46
2023/05/27 03:08:34;;;;;;;1.05;0.82;;;;;;;8.60;65.30;102396.47;15678568;28;20572;-47
2023/05/27 03:16:08;;;;;;;1.57;1.00;;;;;;;8.61;65.47;102397.31;15701536;28;20098;-51
2023/05/27 03:23:41;;;;;;;0.77;0.30;;;;;;;8.60;65.82;102390.28;15697151;28;20413;-47
2023/05/27 03:31:15;;;;;;;1.10;0.80;;;;;;;8.65;65.50;102393.34;15689943;23;20037;-78
2023/05/27 03:39:07;;;;;;;1.63;0.77;;;;;;;8.63;65.76;102388.16;15653344;28;20045;-79
2023/05/27 03:46:43;;;;;;;0.70;0.55;;;;;;;8.72;66.13;102388.19;15707233;23;20504;-50
2023/05/27 03:54:16;;;;;;;3.97;1.67;;;;;;;8.64;67.02;102397.00;15734490;28;20037;-51
2023/05/27 04:01:51;;;;;;;1.00;0.83;;;;;;;8.77;67.17;102399.28;15723337;28;20139;-48
2023/05/27 04:09:23;;;;;;;1.92;1.27;;;;;;;9.01;66.24;102406.63;15711307;28;20044;-49
2023/05/27 04:16:58;;;;;;;0.65;0.65;;;;;;;9.04;66.19;102409.78;15722011;28;20040;-61
2023/05/27 04:24:30;;;;;;;1.55;1.10;;;;;;;9.39;65.82;102416.84;15723854;28;20040;-53
2023/05/27 04:32:06;;;;;;;4.97;1.33;;;;;;;9.56;66.42;102423.13;15695776;28;20052;-53
2023/05/27 04:39:45;;;;;;;7.10;1.63;;;;;;;9.86;66.63;102423.53;15733410;28;20295;-54
2023/05/27 04:47:20;;;;;;;0.70;0.60;;;;;;;10.23;66.24;102420.41;15717487;28;20078;-54
2023/05/27 04:54:55;;;;;;;0.65;0.63;;;;;;;10.80;65.80;102419.56;15723725;28;20032;-54
2023/05/27 05:02:42;;;;;;;1.20;0.80;;;;;;;11.11;65.61;102417.81;15716628;28;20032;-53
2023/05/27 05:10:18;;;;;;;1.92;1.45;;;;;;;11.70;64.04;102414.69;15703782;28;20081;-53
2023/05/27 05:17:58;;;;;;;2.42;0.70;;;;;;;12.08;63.05;102412.16;15715543;28;20040;-53
2023/05/27 05:25:35;;;;;;;3.22;0.95;;;;;;;12.39;62.52;102412.06;15705062;28;20044;-50
2023/05/27 05:33:10;;;;;;;0.80;0.52;;;;;;;13.12;60.33;102405.13;15709662;28;20060;-52
2023/05/27 05:40:48;;;;;;;1.85;0.73;;;;;;;13.06;60.36;102408.56;15717319;28;20040;-51
2023/05/27 05:48:24;;;;;;;1.92;1.20;;;;;;;14.08;57.19;102422.06;15716141;28;20635;-55
2023/05/27 05:55:57;;;;;;;0.55;0.52;;;;;;;14.97;54.63;102423.28;15708613;28;20044;-55
2023/05/27 06:03:33;;;;;;;1.48;0.73;;;;;;;15.53;52.83;102420.44;15707531;28;20052;-56
2023/05/27 06:11:08;;;;;;;0.20;0.20;;;;;;;17.00;48.10;102418.78;15722406;28;20105;-57
2023/05/27 06:18:45;;;;;;;0.93;0.82;;;;;;;17.09;47.31;102420.22;15703650;28;20081;-57
2023/05/27 06:26:19;;;;;;;0.95;0.65;;;;;;;16.73;47.56;102431.53;15718386;28;20075;-56
2023/05/27 06:34:00;;;;;;;6.60;0.82;;;;;;;16.80;47.48;102433.22;15715533;28;20056;-56
2023/05/27 06:41:33;;;;;;;3.33;0.77;;;;;;;17.13;45.99;102434.19;15711004;28;20064;-57
2023/05/27 06:49:26;;;;;;;5.50;1.00;;;;;;;17.81;43.11;102429.16;15702459;28;20153;-55
2023/05/27 06:56:59;;;;;;;10.65;1.55;;;;;;;18.46;42.57;102428.91;15698555;28;20106;-53
2023/05/27 07:04:53;;;;;;;1.33;0.68;;;;;;;18.66;39.50;102431.50;15704116;28;20044;-57
2023/05/27 07:12:26;;;;;;;0.35;0.28;;;;;;;19.07;38.12;102431.75;15735708;28;20041;-53
2023/05/27 07:20:05;;;;;;;3.47;0.60;;;;;;;19.18;35.77;102418.44;15696365;28;20364;-56
2023/05/27 07:27:38;;;;;;;0.10;0.10;;;;;;;19.06;35.18;102415.63;15708049;28;20062;-55
2023/05/27 07:35:13;;;;;;;0.20;0.10;;;;;;;19.38;33.33;102410.84;15708626;28;20045;-55
2023/05/27 07:42:47;;;;;;;1.05;0.25;;;;;;;21.62;29.59;102401.91;15735843;28;20465;-58
2023/05/27 07:50:21;;;;;;;0.77;0.68;;;;;;;21.27;30.35;102400.09;15710418;28;20066;-56
2023/05/27 07:58:20;;;;;;;1.02;0.50;;;;;;;20.52;31.12;102391.84;15732716;28;20252;-56
2023/05/27 08:06:02;;;;;;;0.25;0.20;;;;;;;20.80;30.07;102377.50;15719742;28;20450;-55
2023/05/27 08:13:50;;;;;;;0.52;0.10;;;;;;;21.45;26.67;102360.88;15727464;28;20057;-53
2023/05/27 08:21:39;;;;;;;0.32;0.20;;;;;;;21.10;26.91;102367.22;15686258;28;20060;-55
2023/05/27 08:29:31;;;;;;;0.13;0.10;;;;;;;22.15;25.96;102363.25;15722218;28;20132;-57
2023/05/27 08:37:17;;;;;;;0.20;0.20;;;;;;;21.78;26.18;102349.19;15722967;28;20064;-59
2023/05/27 08:44:52;;;;;;;0.38;0.08;;;;;;;22.27;26.26;102337.72;15722169;28;20155;-53
2023/05/27 08:52:28;;;;;;;0.40;0.00;;;;;;;21.94;26.43;102322.94;15724439;28;20460;-53
2023/05/27 09:00:05;;;;;;;0.57;0.32;;;;;;;22.84;26.13;102313.63;15722637;28;20040;-55
2023/05/27 09:07:39;;;;;;;3.65;0.55;;;;;;;21.39;25.09;102318.94;15681219;28;20044;-56
2023/05/27 09:15:14;;;;;;;0.22;0.10;;;;;;;22.82;26.48;102317.72;15745141;28;20129;-55
2023/05/27 09:22:48;;;;;;;0.73;0.08;;;;;;;23.75;23.67;102312.22;15722273;28;20041;-56
2023/05/27 09:30:21;;;;;;;0.45;0.20;;;;;;;23.49;23.73;102311.94;15743864;28;20120;-55
2023/05/27 09:38:06;;;;;;;0.10;0.10;;;;;;;23.78;23.22;102298.81;15735408;28;20323;-54
2023/05/27 09:45:40;;;;;;;0.57;0.40;;;;;;;24.83;23.25;102301.72;15735989;28;20584;-56
2023/05/27 09:53:14;;;;;;;0.17;0.08;;;;;;;23.89;24.11;102294.25;15742650;28;20044;-52
2023/05/27 10:00:49;;;;;;;0.30;0.10;;;;;;;24.02;20.40;102282.00;15747717;28;20145;-51
2023/05/27 10:08:25;;;;;;;1.58;0.60;;;;;;;23.93;22.13;102287.16;15721177;28;20404;-50
2023/05/27 10:15:58;;;;;;;1.30;0.40;;;;;;;23.86;23.03;102268.16;15717783;28;20067;-53
2023/05/27 10:23:32;;;;;;;0.47;0.30;;;;;;;24.80;22.96;102262.97;15735624;28;20040;-50
2023/05/27 10:31:06;;;;;;;0.55;0.20;;;;;;;24.11;22.16;102270.28;15716075;28;20091;-51
2023/05/27 10:38:42;;;;;;;1.80;0.32;;;;;;;25.46;19.63;102252.19;15709817;28;20131;-50
2023/05/27 10:46:15;;;;;;;0.30;0.20;;;;;;;24.85;20.28;102241.00;15711087;28;20076;-54
2023/05/27 10:53:49;;;;;;;0.57;0.25;;;;;;;25.53;20.64;102236.22;15744591;28;20048;-51
2023/05/27 11:01:30;;;;;;;0.10;0.10;;;;;;;26.04;22.55;102232.63;15732633;28;20102;-51
2023/05/27 11:09:05;;;;;;;0.57;0.43;;;;;;;25.49;20.57;102231.53;15736951;28;20085;-49
2023/05/27 11:16:37;;;;;;;0.17;0.15;;;;;;;25.47;20.20;102209.00;15722218;28;20044;-50
2023/05/27 11:24:17;;;;;;;0.47;0.30;;;;;;;25.61;21.79;102212.84;15712599;28;20060;-54
2023/05/27 11:31:50;;;;;;;2.40;0.60;;;;;;;26.32;20.24;102200.91;15717658;28;20076;-48
2023/05/27 11:39:24;;;;;;;0.45;0.15;;;;;;;25.69;20.79;102201.28;15714788;28;20085;-49
2023/05/27 11:47:00;;;;;;;0.77;0.22;;;;;;;26.74;20.47;102197.72;15713047;28;20044;-52
2023/05/27 11:54:34;;;;;;;1.90;0.22;;;;;;;26.91;18.63;102178.88;15702531;28;20045;-50
2023/05/27 12:02:07;;;;;;;1.55;0.28;;;;;;;25.37;20.09;102171.34;15723912;28;20044;-50
2023/05/27 12:09:41;;;;;;;0.45;0.10;;;;;;;26.05;20.13;102162.72;15750098;28;20052;-49
2023/05/27 12:17:14;;;;;;;0.40;0.25;;;;;;;26.10;19.48;102155.28;15748892;28;20048;-48
2023/05/27 12:24:51;;;;;;;1.02;0.25;;;;;;;26.96;19.37;102145.78;15728123;28;20528;-53
2023/05/27 12:32:26;;;;;;;0.65;0.30;;;;;;;27.63;19.20;102125.91;15725959;28;20048;-53
2023/05/27 12:40:00;;;;;;;0.45;0.30;;;;;;;27.05;20.00;102134.16;15740615;28;20060;-52
2023/05/27 12:47:36;;;;;;;0.32;0.13;;;;;;;26.55;18.96;102117.66;15720746;28;20037;-51
2023/05/27 12:55:11;;;;;;;1.02;0.32;;;;;;;27.29;18.13;102101.97;15728765;28;20053;-51
2023/05/27 13:02:44;;;;;;;10.55;0.57;;;;;;;28.25;18.21;102085.44;15725992;28;20389;-52
2023/05/27 13:10:21;;;;;;;0.93;0.30;;;;;;;27.60;20.15;102080.41;15749564;28;20140;-51
2023/05/27 13:17:54;;;;;;;1.23;0.28;;;;;;;25.83;21.25;102083.28;15723613;28;20056;-48
2023/05/27 13:25:29;;;;;;;0.52;0.22;;;;;;;26.04;23.10;102073.03;15746685;28;20037;-51
2023/05/27 13:33:02;;;;;;;0.40;0.22;;;;;;;24.28;21.03;102063.47;15732310;28;20461;-51
2023/05/27 13:40:36;;;;;;;7.97;0.75;;;;;;;24.87;21.19;102054.81;15715935;28;20072;-54
2023/05/27 13:48:09;;;;;;;1.52;0.47;;;;;;;24.46;22.07;102042.94;15733651;28;20402;-53
2023/05/27 13:55:44;;;;;;;1.40;0.43;;;;;;;23.71;22.53;102036.91;15742811;28;20044;-47
2023/05/27 14:03:18;;;;;;;0.32;0.22;;;;;;;24.33;22.28;102036.03;15741742;28;20098;-48
2023/05/27 14:10:52;;;;;;;0.57;0.43;;;;;;;23.05;23.02;102023.59;15725901;28;20037;-52
2023/05/27 14:18:25;;;;;;;0.55;0.30;;;;;;;23.31;23.15;102008.16;15719873;28;20574;-50
2023/05/27 14:25:59;;;;;;;0.47;0.25;;;;;;;23.13;23.77;102001.22;15741124;28;20069;-50
2023/05/27 14:33:32;;;;;;;1.27;0.22;;;;;;;23.05;24.12;101993.47;15716308;28;20048;-53
2023/05/27 14:41:08;;;;;;;0.28;0.28;;;;;;;23.16;23.85;101984.22;15714811;28;20040;-52
2023/05/27 14:48:44;;;;;;;0.13;0.13;;;;;;;22.63;23.94;101984.09;15714510;28;20446;-53
2023/05/27 14:56:18;;;;;;;0.50;0.20;;;;;;;22.92;23.88;101976.41;15721396;28;20044;-52
2023/05/27 15:03:51;;;;;;;0.10;0.10;;;;;;;22.37;24.50;101974.00;15737689;28;20131;-49
2023/05/27 15:11:26;;;;;;;0.40;0.28;;;;;;;22.42;24.93;101954.88;15724396;28;20417;-52
2023/05/27 15:18:59;;;;;;;3.72;0.30;;;;;;;23.02;23.58;101952.91;15717284;28;20226;-50
2023/05/27 15:26:33;;;;;;;0.45;0.17;;;;;;;21.92;24.60;101947.81;15735878;28;20115;-54
2023/05/27 15:34:05;;;;;;;0.60;0.20;;;;;;;21.54;25.35;101944.09;15738208;28;20033;-49
2023/05/27 15:41:40;;;;;;;0.17;0.17;;;;;;;22.02;25.46;101938.91;15738271;28;20496;-54
2023/05/27 15:49:14;;;;;;;0.60;0.17;;;;;;;22.67;24.33;101926.94;15708287;28;20106;-52
2023/05/27 15:56:49;;;;;;;0.30;0.20;;;;;;;21.98;25.31;101921.34;15722425;28;20058;-49
2023/05/27 16:04:29;;;;;;;0.45;0.10;;;;;;;21.91;26.37;101914.16;15721265;28;20248;-51
2023/05/27 16:12:03;;;;;;;0.08;0.08;;;;;;;22.37;26.18;101906.44;15734153;28;20148;-51
2023/05/27 16:19:36;;;;;;;0.38;0.10;;;;;;;22.15;26.24;101903.78;15744549;28;20059;-51
2023/05/27 16:27:10;;;;;;;3.20;0.60;;;;;;;21.50;27.09;101898.44;15749643;28;20044;-56
2023/05/27 16:34:43;;;;;;;1.50;0.47;;;;;;;21.54;26.47;101896.81;15742392;28;20419;-51
2023/05/27 16:42:18;;;;;;;0.30;0.30;;;;;;;21.81;26.69;101891.38;15724861;28;20120;-50
2023/05/27 16:49:51;;;;;;;0.50;0.22;;;;;;;21.58;26.38;101898.78;15719560;28;20541;-53
2023/05/27 16:57:25;;;;;;;;;;;;;;;21.56;26.57;101895.47;15727574;28;20342;-51
2023/05/27 17:04:58;;;;;;;0.25;0.10;;;;;;;21.55;27.47;101882.09;15745755;28;20018;-50
2023/05/27 17:12:32;;;;;;;0.68;0.20;;;;;;;21.36;26.72;101878.88;15728604;28;20063;-54
2023/05/27 17:20:08;;;;;;;0.75;0.50;;;;;;;21.27;27.11;101861.25;15726468;28;20057;-54
2023/05/27 17:27:42;;;;;;;0.47;0.20;;;;;;;20.99;27.66;101863.06;15725120;28;20404;-53
2023/05/27 17:35:16;;;;;;;0.50;0.13;;;;;;;20.78;28.17;101852.94;15696912;28;20049;-49
2023/05/27 17:42:50;;;;;;;0.52;0.30;;;;;;;20.86;27.97;101856.06;15718033;28;20040;-49
2023/05/27 17:50:23;;;;;;;1.85;0.75;;;;;;;21.39;27.76;101837.38;15736359;28;20072;-50
2023/05/27 17:57:57;;;;;;;;;;;;;;;21.23;28.38;101852.72;15716960;28;20049;-50
2023/05/27 18:05:30;;;;;;;1.27;1.13;;;;;;;21.61;29.12;101851.81;15741713;28;19924;-51
2023/05/27 18:13:04;;;;;;;0.38;0.30;;;;;;;20.91;32.09;101847.13;15723425;28;20133;-47
2023/05/27 18:20:38;;;;;;;0.75;0.50;;;;;;;21.11;31.03;101839.19;15723332;28;20551;-52
2023/05/27 18:28:12;;;;;;;0.40;0.40;;;;;;;20.87;31.39;101848.69;15703187;28;20095;-51
2023/05/27 18:35:45;;;;;;;2.83;0.65;;;;;;;20.52;33.15;101852.56;15711431;28;20079;-51
2023/05/27 18:43:19;;;;;;;0.93;0.25;;;;;;;20.12;31.38;101847.25;15678446;28;20047;-50
2023/05/27 18:50:53;;;;;;;1.05;0.68;;;;;;;19.73;31.46;101828.06;15730300;28;20049;-55
2023/05/27 18:58:27;;;;;;;1.23;0.43;;;;;;;19.56;33.30;101847.03;15725600;28;20049;-50
2023/05/27 19:05:59;;;;;;;3.70;0.50;;;;;;;19.06;34.12;101855.00;15723286;28;20044;-52
2023/05/27 19:13:33;;;;;;;0.43;0.05;;;;;;;18.25;36.14;101852.03;15735642;28;20071;-52
2023/05/27 19:21:06;;;;;;;2.67;0.88;;;;;;;18.88;35.49;101850.53;15738200;28;20166;-52
2023/05/27 19:28:40;;;;;;;0.17;0.15;;;;;;;18.33;35.83;101854.41;15732600;28;20048;-51
2023/05/27 19:36:13;;;;;;;0.50;0.20;;;;;;;18.42;36.58;101854.03;15700960;28;20133;-53
2023/05/27 19:43:47;;;;;;;1.38;0.47;;;;;;;18.30;37.45;101854.88;15710774;28;20041;-50
2023/05/27 19:51:20;;;;;;;1.92;0.68;;;;;;;17.95;38.79;101857.53;15713615;28;20060;-47
2023/05/27 19:58:54;;;;;;;1.13;0.52;;;;;;;17.60;40.05;101855.47;15694167;28;20414;-48
2023/05/27 20:06:27;;;;;;;0.52;0.40;;;;;;;17.19;41.51;101856.19;15724151;28;20127;-48
2023/05/27 20:14:02;;;;;;;0.90;0.45;;;;;;;16.94;41.39;101839.19;15731988;28;20052;-54
2023/05/27 20:21:35;;;;;;;0.40;0.40;;;;;;;16.62;42.60;101841.16;15733954;28;20048;-50
2023/05/27 20:29:09;;;;;;;1.77;1.02;;;;;;;16.20;43.31;101814.63;15725421;28;20053;-50
2023/05/27 20:36:41;;;;;;;0.60;0.50;;;;;;;16.17;44.04;101846.75;15724508;28;20041;-54
2023/05/27 20:44:15;;;;;;;1.90;1.13;;;;;;;15.97;43.85;101846.91;15737970;28;20058;-51
2023/05/27 20:51:48;;;;;;;2.72;1.23;;;;;;;15.79;44.72;101850.34;15707635;28;20052;-50
2023/05/27 20:59:23;;;;;;;2.27;0.97;;;;;;;15.58;44.73;101848.78;15738186;28;20044;-52
2023/05/27 21:06:55;;;;;;;0.85;0.60;;;;;;;15.23;45.58;101840.19;15738353;28;20131;-47
2023/05/27 21:14:29;;;;;;;3.47;0.83;;;;;;;15.16;45.93;101837.53;15741379;28;20556;-46
2023/05/27 21:22:02;;;;;;;2.03;0.75;;;;;;;14.93;46.06;101838.00;15729174;28;20657;-47
2023/05/27 21:29:37;;;;;;;0.70;0.50;;;;;;;14.95;45.72;101830.50;15738514;28;20127;-50
2023/05/27 21:37:10;;;;;;;1.02;0.40;;;;;;;14.75;46.95;101825.16;15708740;28;20040;-52
2023/05/27 21:44:44;;;;;;;2.00;0.77;;;;;;;14.47;47.54;101819.16;15719010;28;20464;-49
2023/05/27 21:52:18;;;;;;;1.33;0.57;;;;;;;14.44;47.03;101816.84;15756756;22;20098;-48
2023/05/27 21:59:55;;;;;;;;;;;;;;;14.12;47.13;101778.84;15583648;28;20092;-50
2023/05/27 22:07:28;;;;;;;0.63;0.57;;;;;;;14.10;47.75;101807.94;15570065;28;20176;-49
2023/05/27 22:15:02;;;;;;;2.60;1.13;;;;;;;13.92;48.67;101803.16;15535886;28;20042;-49
2023/05/27 22:22:35;;;;;;;3.80;0.68;;;;;;;13.77;49.71;101802.50;15554254;28;20065;-50
2023/05/27 22:30:10;;;;;;;0.80;0.50;;;;;;;13.53;50.16;101801.22;15549581;28;20467;-49
2023/05/27 22:37:43;;;;;;;1.40;0.40;;;;;;;13.53;49.90;101802.06;15552413;28;20033;-50
2023/05/27 22:45:17;;;;;;;0.47;0.33;;;;;;;13.28;51.26;101793.66;15536275;28;20047;-49
2023/05/27 22:52:50;;;;;;;0.35;0.35;;;;;;;13.23;50.54;101788.03;15538371;28;20086;-51
2023/05/27 23:00:24;;;;;;;2.13;1.05;;;;;;;12.98;51.86;101798.50;15535303;28;20134;-52
2023/05/27 23:07:57;;;;;;;1.13;0.88;;;;;;;12.98;52.33;101787.72;15550101;28;20117;-48
2023/05/27 23:15:32;;;;;;;1.50;0.90;;;;;;;12.94;51.78;101797.22;15556287;28;20041;-50
2023/05/27 23:23:05;;;;;;;2.20;0.98;;;;;;;12.52;53.21;101790.97;15548525;28;20491;-49
2023/05/27 23:30:38;;;;;;;1.93;0.93;;;;;;;12.61;52.88;101788.97;15557588;28;20081;-48
2023/05/27 23:38:15;;;;;;;2.90;1.77;;;;;;;12.37;54.17;101787.56;15546642;28;20609;-48
2023/05/27 23:45:49;;;;;;;7.50;2.65;;;;;;;12.37;54.33;101784.88;15547286;28;20046;-49
2023/05/27 23:53:21;;;;;;;3.00;2.17;;;;;;;12.19;54.64;101776.47;15543314;28;20505;-47
